KAKQ

Wakefield Municipal Airport

Wakefield, Virginia, USA
METAR KAKQ 191054Z AUTO 00000KT 10SM CLR M03/M04 A3021 RMK AO2 SLP233 I1000 T10331044
Observed Flight Rules
Dec-19 @ 10:54 UTC (an hour ago) Visual Flight Rules
Visibility Clouds
10 miles
  • Clear skies
Temperatures Readings
Current -3°C / 27°F
Dewpoint -4°C / 25°F
Humidity 93%
Altimeter 30.21" Hg
Pressure 1023.3 hPa
Elevation 34
METAR KAKQ 191054Z AUTO 00000KT 10SM CLR M03/M04 A3021 RMK AO2 SLP233 I1000 T10331044
Observed Flight Rules
Dec-19 @ 10:54 UTC
(an hour ago)
VFR
Clouds
  • Clear skies
Temperature Dewpoint
-3°C / 27°F -4°C / 25°F
Humidity Altimeter Pressure
93% 30.21" Hg 1023.3 hPa